createdAt,value
2018-10-03T00:00:15.923Z,8.51
2018-10-03T00:02:44.237Z,8.50
2018-10-03T00:05:12.553Z,8.50
2018-10-03T00:07:41.454Z,8.53
2018-10-03T00:10:09.189Z,8.56
2018-10-03T00:12:37.513Z,8.58
2018-10-03T00:15:05.834Z,8.58
2018-10-03T00:17:34.748Z,8.60
2018-10-03T00:20:03.106Z,8.54
2018-10-03T00:22:30.857Z,8.55
2018-10-03T00:24:59.186Z,8.55
2018-10-03T00:27:27.510Z,8.53
2018-10-03T00:29:56.419Z,8.52
2018-10-03T00:32:24.163Z,8.52
2018-10-03T00:34:53.049Z,8.43
2018-10-03T00:37:20.800Z,8.43
2018-10-03T00:39:51.318Z,8.44
2018-10-03T00:42:18.398Z,8.45
2018-10-03T00:44:46.165Z,8.44
2018-10-03T00:47:15.082Z,8.46
2018-10-03T00:49:43.405Z,8.45
2018-10-03T00:52:11.170Z,8.42
2018-10-03T00:54:39.477Z,8.39
2018-10-03T00:57:07.798Z,8.31
2018-10-03T00:59:36.125Z,8.33
2018-10-03T01:02:04.452Z,8.28
2018-10-03T01:04:33.492Z,8.31
2018-10-03T01:07:02.375Z,8.26
2018-10-03T01:09:30.929Z,8.27
2018-10-03T01:11:59.020Z,8.28
2018-10-03T01:14:27.344Z,8.27
2018-10-03T01:16:55.084Z,8.31
2018-10-03T01:19:24.012Z,8.32
2018-10-03T01:21:52.320Z,8.31
2018-10-03T01:24:20.630Z,8.30
2018-10-03T01:26:48.941Z,8.28
2018-10-03T01:29:17.252Z,8.31
2018-10-03T01:31:45.573Z,8.27
2018-10-03T01:34:13.302Z,8.38
2018-10-03T01:36:42.202Z,8.31
2018-10-03T01:39:10.523Z,8.37
2018-10-03T01:41:38.857Z,8.35
2018-10-03T01:44:06.581Z,8.35
2018-10-03T01:46:35.481Z,8.35
2018-10-03T01:49:03.789Z,8.33
2018-10-03T01:51:32.139Z,8.37
2018-10-03T01:53:59.942Z,8.37
2018-10-03T01:56:28.836Z,8.36
2018-10-03T01:58:56.574Z,8.36
2018-10-03T02:01:25.469Z,8.41
2018-10-03T02:03:53.809Z,8.38
2018-10-03T02:06:21.543Z,8.35
2018-10-03T02:08:49.857Z,8.38
2018-10-03T02:11:18.173Z,8.35
2018-10-03T02:13:47.067Z,8.36
2018-10-03T02:16:15.396Z,8.38
2018-10-03T02:18:43.716Z,8.40
2018-10-03T02:21:11.453Z,8.44
2018-10-03T02:23:40.342Z,8.39
2018-10-03T02:26:08.704Z,8.36
2018-10-03T02:28:37.044Z,8.38
2018-10-03T02:31:05.419Z,8.33
2018-10-03T02:33:33.151Z,8.31
2018-10-03T02:36:02.058Z,8.31
2018-10-03T02:38:30.377Z,8.30
2018-10-03T02:41:00.046Z,8.26
2018-10-03T02:43:27.049Z,8.25
2018-10-03T02:45:55.361Z,8.18
2018-10-03T02:48:23.101Z,8.11
2018-10-03T02:50:51.405Z,8.13
2018-10-03T02:53:20.296Z,8.07
2018-10-03T02:55:48.651Z,8.13
2018-10-03T02:58:16.377Z,8.08
2018-10-03T03:00:44.698Z,8.08
2018-10-03T03:03:13.058Z,8.10
2018-10-03T03:05:42.225Z,8.06
2018-10-03T03:08:09.970Z,8.07
2018-10-03T03:10:38.276Z,8.02
2018-10-03T03:13:07.175Z,8.05
2018-10-03T03:15:34.909Z,8.05
2018-10-03T03:18:03.805Z,8.04
2018-10-03T03:20:31.541Z,8.02
2018-10-03T03:23:00.442Z,8.02
2018-10-03T03:25:28.173Z,8.05
2018-10-03T03:27:57.060Z,8.06
2018-10-03T03:30:25.393Z,8.10
2018-10-03T03:32:55.170Z,8.13
2018-10-03T03:35:22.075Z,8.16
2018-10-03T03:37:49.822Z,8.20
2018-10-03T03:40:18.720Z,8.25
2018-10-03T03:42:46.454Z,8.27
2018-10-03T03:45:14.768Z,8.28
2018-10-03T03:47:43.107Z,8.33
2018-10-03T03:50:11.539Z,8.36
2018-10-03T03:52:39.754Z,8.37
2018-10-03T03:55:08.060Z,8.44
2018-10-03T03:57:36.425Z,8.47
2018-10-03T04:00:04.755Z,8.49
2018-10-03T04:02:33.884Z,8.55
2018-10-03T04:05:01.391Z,8.54
2018-10-03T04:07:30.547Z,8.55
2018-10-03T04:09:59.454Z,8.60
2018-10-03T04:12:27.791Z,8.60
2018-10-03T04:14:56.123Z,8.65
2018-10-03T04:17:23.876Z,8.66
2018-10-03T04:19:52.800Z,8.69
2018-10-03T04:22:21.109Z,8.71
2018-10-03T04:24:48.842Z,8.75
2018-10-03T04:27:17.163Z,8.76
2018-10-03T04:29:45.496Z,8.75
2018-10-03T04:32:13.821Z,8.77
2018-10-03T04:34:42.733Z,8.82
2018-10-03T04:37:10.479Z,8.89
2018-10-03T04:39:39.382Z,8.88
2018-10-03T04:42:08.640Z,8.86
2018-10-03T04:44:36.184Z,8.86
2018-10-03T04:47:04.496Z,8.93
2018-10-03T04:49:32.809Z,8.89
2018-10-03T04:52:00.540Z,8.93
2018-10-03T04:54:28.951Z,8.95
2018-10-03T04:56:57.783Z,8.98
2018-10-03T04:59:25.547Z,8.99
2018-10-03T05:01:54.439Z,8.99
2018-10-03T05:04:22.785Z,8.98
2018-10-03T05:06:51.455Z,9.08
2018-10-03T05:09:19.177Z,9.09
2018-10-03T05:11:48.074Z,9.09
2018-10-03T05:14:16.385Z,9.04
2018-10-03T05:16:44.697Z,9.05
2018-10-03T05:19:12.429Z,9.09
2018-10-03T05:21:41.331Z,9.01
2018-10-03T05:24:09.650Z,9.08
2018-10-03T05:26:37.972Z,9.08
2018-10-03T05:29:06.300Z,9.13
2018-10-03T05:31:34.054Z,9.16
2018-10-03T05:34:02.950Z,9.17
2018-10-03T05:36:31.198Z,9.19
2018-10-03T05:38:59.473Z,9.15
2018-10-03T05:41:27.742Z,9.14
2018-10-03T05:43:56.240Z,9.13
2018-10-03T05:46:24.165Z,9.27
2018-10-03T05:48:52.343Z,9.29
2018-10-03T05:51:20.648Z,9.34
2018-10-03T05:53:49.799Z,9.47
2018-10-03T05:56:17.536Z,9.55
2018-10-03T05:58:46.450Z,9.59
2018-10-03T06:01:14.224Z,9.51
2018-10-03T06:03:43.117Z,9.35
2018-10-03T06:06:11.423Z,9.28
2018-10-03T06:08:39.736Z,9.24
2018-10-03T06:11:08.054Z,9.27
2018-10-03T06:13:36.376Z,9.26
2018-10-03T06:16:04.112Z,9.19
2018-10-03T06:18:32.440Z,9.51
2018-10-03T06:21:01.317Z,9.51
2018-10-03T06:23:29.244Z,9.46
2018-10-03T06:25:57.381Z,9.50
2018-10-03T06:28:27.288Z,9.53
2018-10-03T06:30:54.790Z,9.45
2018-10-03T06:33:23.141Z,9.42
2018-10-03T06:35:52.015Z,9.38
2018-10-03T06:38:20.324Z,9.41
2018-10-03T06:40:48.651Z,9.38
2018-10-03T06:43:16.377Z,9.29
2018-10-03T06:45:44.711Z,9.25
2018-10-03T06:48:13.006Z,9.26
2018-10-03T06:50:41.900Z,9.25
2018-10-03T06:53:09.625Z,9.19
2018-10-03T06:55:38.528Z,9.17
2018-10-03T06:58:06.850Z,9.11
2018-10-03T07:00:34.584Z,9.17
2018-10-03T07:03:03.519Z,9.20
2018-10-03T07:05:31.838Z,9.15
2018-10-03T07:08:00.143Z,9.23
2018-10-03T07:10:28.468Z,9.23
2018-10-03T07:12:56.870Z,9.26
2018-10-03T07:15:25.128Z,9.28
2018-10-03T07:17:53.455Z,9.27
2018-10-03T07:20:21.776Z,9.25
2018-10-03T07:22:50.305Z,9.25
2018-10-03T07:25:18.065Z,9.28
2018-10-03T07:27:46.370Z,9.31
2018-10-03T07:30:15.266Z,9.31
2018-10-03T07:32:43.633Z,9.29
2018-10-03T07:35:11.909Z,9.33
2018-10-03T07:37:40.487Z,9.41
2018-10-03T07:40:08.819Z,9.47
2018-10-03T07:42:36.555Z,9.50
2018-10-03T07:45:05.457Z,9.49
2018-10-03T07:47:33.809Z,9.36
2018-10-03T07:50:02.116Z,9.37
2018-10-03T07:52:30.777Z,9.35
2018-10-03T07:54:58.523Z,9.30
2018-10-03T07:57:27.752Z,9.27
2018-10-03T07:59:57.424Z,9.20
2018-10-03T08:02:25.163Z,9.26
2018-10-03T08:04:54.122Z,9.33
2018-10-03T08:07:22.472Z,9.26
2018-10-03T08:09:50.927Z,9.29
2018-10-03T08:12:19.229Z,9.37
2018-10-03T08:14:47.799Z,9.41
2018-10-03T08:17:15.593Z,9.47
2018-10-03T08:19:43.859Z,9.53
2018-10-03T08:22:12.819Z,9.61
2018-10-03T08:24:41.285Z,9.66
2018-10-03T08:27:08.877Z,9.73
2018-10-03T08:29:37.789Z,9.73
2018-10-03T08:32:06.173Z,9.69
2018-10-03T08:34:33.906Z,9.73
2018-10-03T08:37:02.816Z,9.77
2018-10-03T08:39:31.197Z,9.70
2018-10-03T08:41:59.801Z,9.68
2018-10-03T08:44:27.898Z,9.59
2018-10-03T08:46:56.242Z,9.58
2018-10-03T08:49:24.614Z,9.55
2018-10-03T08:51:52.821Z,9.49
2018-10-03T08:54:21.689Z,9.46
2018-10-03T08:56:49.483Z,9.38
2018-10-03T08:59:18.404Z,9.33
2018-10-03T09:01:46.725Z,9.28
2018-10-03T09:04:15.119Z,9.28
2018-10-03T09:06:43.480Z,9.32
2018-10-03T09:09:11.878Z,9.36
2018-10-03T09:11:40.225Z,9.36
2018-10-03T09:14:07.944Z,9.41
2018-10-03T09:16:36.275Z,9.41
2018-10-03T09:19:04.587Z,9.41
2018-10-03T09:21:32.992Z,9.45
2018-10-03T09:24:01.839Z,9.48
2018-10-03T09:26:30.132Z,9.48
2018-10-03T09:28:57.930Z,9.46
2018-10-03T09:31:27.691Z,9.52
2018-10-03T09:33:55.144Z,9.55
2018-10-03T09:36:23.695Z,9.57
2018-10-03T09:38:51.223Z,9.56
2018-10-03T09:41:20.111Z,9.52
2018-10-03T09:43:48.443Z,9.54
2018-10-03T09:46:16.752Z,9.52
2018-10-03T09:48:44.527Z,9.56
2018-10-03T09:51:13.430Z,9.58
2018-10-03T09:53:41.782Z,9.62
2018-10-03T09:56:09.493Z,9.72
2018-10-03T09:58:38.392Z,9.76
2018-10-03T10:01:06.131Z,9.82
2018-10-03T10:03:35.020Z,9.81
2018-10-03T10:06:03.343Z,9.87
2018-10-03T10:08:31.700Z,9.90
2018-10-03T10:11:00.085Z,9.90
2018-10-03T10:13:28.339Z,9.92
2018-10-03T10:15:56.089Z,9.83
2018-10-03T10:18:24.403Z,9.88
2018-10-03T10:20:53.334Z,9.89
2018-10-03T10:23:21.855Z,9.88
2018-10-03T10:25:49.950Z,9.88
2018-10-03T10:28:18.285Z,9.92
2018-10-03T10:30:46.703Z,9.95
2018-10-03T10:33:15.034Z,9.98
2018-10-03T10:35:43.384Z,9.98
2018-10-03T10:38:11.735Z,10.02
2018-10-03T10:40:39.697Z,10.05
2018-10-03T10:43:08.422Z,10.12
2018-10-03T10:45:36.958Z,10.20
2018-10-03T10:48:05.319Z,10.28
2018-10-03T10:50:33.639Z,10.30
2018-10-03T10:53:02.268Z,10.30
2018-10-03T10:55:30.610Z,10.35
2018-10-03T10:57:58.668Z,10.40
2018-10-03T11:00:26.993Z,10.39
2018-10-03T11:02:55.568Z,10.43
2018-10-03T11:05:23.893Z,10.44
2018-10-03T11:07:51.985Z,10.42
2018-10-03T11:10:19.779Z,10.40
2018-10-03T11:12:52.043Z,10.35
2018-10-03T11:15:16.999Z,10.35
2018-10-03T11:17:45.321Z,10.36
2018-10-03T11:20:13.682Z,10.37
2018-10-03T11:22:42.010Z,10.42
2018-10-03T11:25:09.845Z,10.45
2018-10-03T11:27:38.318Z,10.50
2018-10-03T11:30:07.262Z,10.49
2018-10-03T11:32:36.326Z,10.52
2018-10-03T11:35:04.730Z,10.55
2018-10-03T11:37:33.046Z,10.57
2018-10-03T11:40:01.442Z,10.63
2018-10-03T11:42:30.048Z,10.67
2018-10-03T11:44:58.128Z,10.69
2018-10-03T11:47:28.015Z,10.65
2018-10-03T11:49:56.869Z,10.59
2018-10-03T11:52:25.220Z,10.55
2018-10-03T11:54:53.779Z,10.57
2018-10-03T11:57:21.897Z,10.65
2018-10-03T11:59:50.256Z,10.77
2018-10-03T12:02:18.608Z,10.80
2018-10-03T12:04:46.918Z,10.80
2018-10-03T12:07:15.254Z,10.81
2018-10-03T12:09:42.991Z,10.82
2018-10-03T12:12:11.408Z,10.82
2018-10-03T12:14:40.322Z,10.80
2018-10-03T12:17:08.636Z,10.79
2018-10-03T12:19:36.981Z,10.78
2018-10-03T12:22:06.413Z,10.75
2018-10-03T12:24:33.939Z,10.70
2018-10-03T12:27:03.075Z,10.66
2018-10-03T12:29:31.180Z,10.75
2018-10-03T12:31:58.922Z,10.83
2018-10-03T12:34:27.246Z,10.91
2018-10-03T12:36:55.563Z,10.96
2018-10-03T12:39:24.473Z,11.04
2018-10-03T12:41:52.801Z,11.12
2018-10-03T12:44:21.170Z,11.22
2018-10-03T12:46:48.884Z,11.29
2018-10-03T12:49:17.797Z,11.49
2018-10-03T12:51:47.038Z,11.90
2018-10-03T12:54:15.379Z,11.86
2018-10-03T12:56:43.113Z,11.76
2018-10-03T12:59:12.031Z,11.67
2018-10-03T13:01:40.368Z,11.56
2018-10-03T13:04:08.719Z,11.61
2018-10-03T13:06:37.256Z,12.18
2018-10-03T13:09:05.355Z,13.17
2018-10-03T13:11:33.693Z,14.00
2018-10-03T13:14:02.312Z,13.90
2018-10-03T13:16:29.801Z,13.40
2018-10-03T13:18:58.696Z,13.06
2018-10-03T13:21:27.014Z,12.76
2018-10-03T13:23:55.339Z,12.63
2018-10-03T13:26:23.669Z,12.49
2018-10-03T13:28:52.011Z,12.67
2018-10-03T13:31:20.388Z,12.51
2018-10-03T13:36:42.163Z,12.72
2018-10-03T13:39:10.492Z,12.90
2018-10-03T13:41:39.446Z,12.49
2018-10-03T13:44:07.176Z,12.23
2018-10-03T13:46:35.550Z,12.10
2018-10-03T13:49:04.406Z,12.02
2018-10-03T13:51:32.731Z,11.97
2018-10-03T13:54:00.472Z,11.91
2018-10-03T13:56:29.412Z,11.86
2018-10-03T13:58:57.822Z,11.82
2018-10-03T14:01:26.413Z,11.79
2018-10-03T14:03:54.757Z,11.77
2018-10-03T14:06:23.110Z,11.82
2018-10-03T14:08:51.668Z,11.92
2018-10-03T14:11:20.796Z,12.08
2018-10-03T14:13:48.167Z,11.96
2018-10-03T14:16:16.765Z,11.87
2018-10-03T14:18:45.076Z,11.85
2018-10-03T14:21:12.823Z,13.90
2018-10-03T14:23:41.728Z,14.37
2018-10-03T14:26:10.112Z,13.43
2018-10-03T14:28:38.433Z,12.77
2018-10-03T14:31:06.850Z,12.49
2018-10-03T14:33:36.151Z,12.34
2018-10-03T14:36:03.521Z,12.21
2018-10-03T14:38:31.852Z,12.07
2018-10-03T14:41:00.908Z,12.01
2018-10-03T14:43:28.956Z,11.94
2018-10-03T14:45:57.544Z,11.85
2018-10-03T14:48:26.096Z,11.78
2018-10-03T14:50:54.193Z,11.82
2018-10-03T14:53:22.512Z,11.83
2018-10-03T14:55:50.863Z,11.86
2018-10-03T14:58:19.304Z,11.88
2018-10-03T15:00:47.580Z,11.93
2018-10-03T15:03:15.326Z,11.87
2018-10-03T15:05:43.920Z,11.83
2018-10-03T15:08:13.036Z,11.77
2018-10-03T15:10:41.125Z,11.73
2018-10-03T15:13:09.522Z,11.71
2018-10-03T15:15:37.866Z,11.71
2018-10-03T15:18:05.677Z,11.64
2018-10-03T15:20:34.547Z,11.61
2018-10-03T15:23:02.873Z,11.55
2018-10-03T15:25:31.204Z,11.49
2018-10-03T15:27:59.528Z,11.46
2018-10-03T15:30:27.880Z,11.42
2018-10-03T15:32:56.230Z,11.44
2018-10-03T15:35:23.995Z,11.45
2018-10-03T15:37:52.892Z,11.44
2018-10-03T15:40:20.640Z,11.42
2018-10-03T15:42:49.845Z,11.41
2018-10-03T15:45:17.941Z,11.40
2018-10-03T15:47:46.282Z,11.39
2018-10-03T15:50:14.609Z,11.36
2018-10-03T15:52:42.357Z,11.33
2018-10-03T15:55:11.296Z,11.32
2018-10-03T15:57:39.589Z,11.27
2018-10-03T16:00:07.922Z,11.26
2018-10-03T16:02:36.266Z,11.28
2018-10-03T16:05:04.585Z,11.26
2018-10-03T16:07:32.909Z,11.26
2018-10-03T16:10:00.689Z,11.26
2018-10-03T16:12:29.737Z,11.26
2018-10-03T16:14:58.068Z,11.24
2018-10-03T16:17:26.401Z,11.24
2018-10-03T16:19:54.399Z,11.22
2018-10-03T16:22:23.539Z,11.21
2018-10-03T16:24:51.336Z,11.20
2018-10-03T16:27:20.272Z,11.18
2018-10-03T16:29:48.602Z,11.17
2018-10-03T16:32:17.314Z,11.14
2018-10-03T16:34:45.577Z,11.10
2018-10-03T16:37:13.897Z,11.07
2018-10-03T16:39:41.667Z,11.05
2018-10-03T16:42:10.588Z,11.05
2018-10-03T16:44:38.890Z,11.06
2018-10-03T16:47:06.831Z,11.04
2018-10-03T16:49:36.519Z,11.00
2018-10-03T16:52:04.862Z,10.99
2018-10-03T16:54:33.228Z,10.98
2018-10-03T16:57:01.569Z,10.97
2018-10-03T16:59:30.130Z,10.96
2018-10-03T17:01:58.759Z,10.94
2018-10-03T17:04:27.141Z,10.94
2018-10-03T17:06:55.510Z,10.95
2018-10-03T17:09:23.789Z,10.93
2018-10-03T17:11:52.104Z,10.89
2018-10-03T17:14:20.602Z,10.86
2018-10-03T17:16:48.352Z,10.84
2018-10-03T17:19:17.359Z,10.81
2018-10-03T17:21:46.132Z,10.77
2018-10-03T17:24:14.271Z,10.74
2018-10-03T17:26:42.603Z,10.69
2018-10-03T17:29:10.954Z,10.66
2018-10-03T17:31:38.834Z,10.63
2018-10-03T17:34:07.676Z,10.60
2018-10-03T17:36:36.337Z,10.57
2018-10-03T17:39:04.687Z,10.53
2018-10-03T17:41:32.446Z,10.52
2018-10-03T17:44:01.369Z,10.48
2018-10-03T17:46:29.727Z,10.46
2018-10-03T17:48:57.471Z,10.46
2018-10-03T17:51:25.792Z,10.46
2018-10-03T17:53:54.743Z,10.49
2018-10-03T17:56:23.121Z,10.51
2018-10-03T17:58:51.510Z,10.52
2018-10-03T18:01:19.849Z,10.49
2018-10-03T18:03:48.177Z,10.47
2018-10-03T18:06:16.608Z,10.45
2018-10-03T18:08:45.030Z,10.39
2018-10-03T18:11:13.397Z,10.27
2018-10-03T18:13:42.107Z,10.26
2018-10-03T18:16:10.513Z,10.25
2018-10-03T18:18:38.852Z,10.23
2018-10-03T18:21:07.216Z,10.17
2018-10-03T18:23:35.603Z,10.14
2018-10-03T18:26:04.035Z,10.11
2018-10-03T18:28:32.377Z,10.12
2018-10-03T18:31:00.751Z,10.13
2018-10-03T18:33:29.159Z,10.13
2018-10-03T18:35:57.469Z,10.12
2018-10-03T18:38:25.824Z,10.19
2018-10-03T18:40:53.606Z,10.15
2018-10-03T18:43:22.537Z,10.12
2018-10-03T18:45:50.882Z,10.10
2018-10-03T18:48:19.623Z,10.10
2018-10-03T18:50:47.993Z,10.05
2018-10-03T18:53:16.328Z,10.07
2018-10-03T18:55:44.114Z,10.11
2018-10-03T18:58:13.085Z,10.11
2018-10-03T19:00:41.449Z,10.13
2018-10-03T19:03:10.432Z,10.16
2018-10-03T19:05:39.067Z,10.20
2018-10-03T19:08:07.431Z,10.27
2018-10-03T19:10:36.010Z,10.30
2018-10-03T19:13:04.123Z,10.35
2018-10-03T19:15:32.474Z,10.40
2018-10-03T19:18:00.893Z,10.43
2018-10-03T19:20:29.227Z,10.46
2018-10-03T19:22:57.532Z,10.49
2018-10-03T19:25:26.158Z,10.51
2018-10-03T19:27:55.002Z,10.50
2018-10-03T19:30:23.333Z,10.53
2018-10-03T19:32:51.672Z,10.51
2018-10-03T19:35:19.426Z,10.52
2018-10-03T19:37:47.796Z,10.52
2018-10-03T19:40:16.124Z,10.52
2018-10-03T19:42:45.042Z,10.52
2018-10-03T19:45:12.789Z,10.50
2018-10-03T19:47:41.729Z,10.51
2018-10-03T19:50:10.405Z,10.51
2018-10-03T19:52:38.755Z,10.51
2018-10-03T19:55:07.096Z,10.49
2018-10-03T19:57:35.440Z,10.49
2018-10-03T20:00:03.769Z,10.49
2018-10-03T20:02:32.105Z,10.50
2018-10-03T20:05:00.491Z,10.51
2018-10-03T20:07:28.859Z,10.51
2018-10-03T20:09:56.628Z,10.52
2018-10-03T20:12:25.522Z,10.53
2018-10-03T20:14:54.668Z,10.56
2018-10-03T20:17:23.226Z,10.59
2018-10-03T20:19:51.367Z,10.59
2018-10-03T20:22:19.717Z,10.62
2018-10-03T20:24:48.053Z,10.63
2018-10-03T20:27:16.685Z,10.63
2018-10-03T20:29:45.598Z,10.61
2018-10-03T20:32:13.372Z,10.65
2018-10-03T20:34:43.075Z,10.66
2018-10-03T20:37:10.631Z,10.67
2018-10-03T20:39:38.983Z,10.67
2018-10-03T20:42:06.836Z,10.69
2018-10-03T20:44:35.722Z,10.70
2018-10-03T20:47:03.493Z,10.69
2018-10-03T20:49:32.450Z,10.70
2018-10-03T20:52:00.790Z,10.70
2018-10-03T20:54:29.313Z,10.69
2018-10-03T20:56:57.526Z,10.67
2018-10-03T20:59:25.913Z,10.63
2018-10-03T21:01:54.622Z,10.58
2018-10-03T21:04:22.458Z,10.54
2018-10-03T21:06:51.374Z,10.53
2018-10-03T21:09:19.731Z,10.49
2018-10-03T21:11:47.684Z,10.46
2018-10-03T21:14:15.818Z,10.44
2018-10-03T21:16:44.736Z,10.43
2018-10-03T21:19:13.050Z,10.42
2018-10-03T21:21:40.817Z,10.41
2018-10-03T21:24:09.141Z,10.39
2018-10-03T21:26:37.474Z,10.38
2018-10-03T21:29:05.878Z,10.38
2018-10-03T21:31:35.005Z,10.38
2018-10-03T21:34:03.187Z,10.39
2018-10-03T21:36:31.513Z,10.38
2018-10-03T21:38:59.865Z,10.38
2018-10-03T21:41:28.183Z,10.38
2018-10-03T21:43:56.504Z,10.38
2018-10-03T21:46:24.847Z,10.33
2018-10-03T21:48:53.208Z,10.33
2018-10-03T21:51:20.959Z,10.32
2018-10-03T21:53:49.862Z,10.30
2018-10-03T21:56:18.213Z,10.29
2018-10-03T21:58:46.003Z,10.29
2018-10-03T22:01:14.290Z,10.26
2018-10-03T22:03:42.673Z,10.23
2018-10-03T22:06:11.571Z,10.20
2018-10-03T22:08:40.158Z,10.19
2018-10-03T22:11:07.903Z,10.18
2018-10-03T22:13:36.851Z,10.17
2018-10-03T22:16:05.173Z,10.16
2018-10-03T22:18:32.908Z,10.15
2018-10-03T22:21:01.812Z,10.13
2018-10-03T22:23:30.123Z,10.12
2018-10-03T22:25:58.440Z,10.10
2018-10-03T22:28:26.194Z,10.09
2018-10-03T22:30:55.146Z,10.07
2018-10-03T22:33:23.456Z,10.04
2018-10-03T22:35:51.191Z,10.01
2018-10-03T22:38:19.509Z,9.98
2018-10-03T22:40:48.421Z,9.96
2018-10-03T22:43:16.156Z,9.94
2018-10-03T22:45:45.046Z,9.90
2018-10-03T22:48:13.364Z,9.87
2018-10-03T22:50:41.669Z,9.85
2018-10-03T22:53:10.006Z,9.82
2018-10-03T22:55:37.744Z,9.83
2018-10-03T22:58:06.065Z,9.85
2018-10-03T23:00:34.976Z,9.88
2018-10-03T23:03:03.275Z,9.90
2018-10-03T23:05:31.586Z,9.90
2018-10-03T23:07:59.345Z,9.90
2018-10-03T23:10:28.242Z,9.92
2018-10-03T23:12:56.563Z,9.94
2018-10-03T23:15:24.297Z,9.95
2018-10-03T23:17:53.187Z,9.95
2018-10-03T23:20:24.699Z,9.94
2018-10-03T23:22:49.902Z,9.89
2018-10-03T23:25:18.238Z,9.84
2018-10-03T23:27:47.166Z,9.77
2018-10-03T23:30:15.468Z,9.69
2018-10-03T23:32:43.816Z,9.64
2018-10-03T23:35:11.554Z,9.58
2018-10-03T23:37:39.873Z,9.54
2018-10-03T23:40:08.776Z,9.49
2018-10-03T23:42:37.110Z,9.45
2018-10-03T23:45:05.420Z,9.40
2018-10-03T23:47:33.149Z,9.37
2018-10-03T23:50:01.466Z,9.33
2018-10-03T23:52:30.361Z,9.32
2018-10-03T23:54:58.688Z,9.31
2018-10-03T23:57:27.046Z,9.30
2018-10-03T23:59:55.332Z,9.27
